Time;durP1;ratioP1;P1;durP2;ratioP2;P2;SDS_P1;SDS_P2;PMS_P1;PMS_P2;Temp;Humidity;BMP_temperature;BMP_pressure;BME280_temperature;BME280_humidity;BME280_pressure;Samples;Min_cycle;Max_cycle;Signal;HPM_P1;HPM_P2
2023/09/26 00:01:15;;;;;;;2.70;1.90;;;;;;;21.00;91.34;99681.78;5074153;28;20204;-67
2023/09/26 00:03:42;;;;;;;3.90;1.73;;;;;;;21.00;91.55;99681.78;5075745;28;20228;-68
2023/09/26 00:06:19;;;;;;;2.17;1.73;;;;;;;20.94;91.34;99677.81;5094365;28;20240;-69
2023/09/26 00:08:46;;;;;;;6.53;1.60;;;;;;;20.84;92.26;99677.59;5094184;28;20261;-68
2023/09/26 00:11:13;;;;;;;1.63;1.50;;;;;;;20.85;92.10;99679.25;5094260;28;20750;-68
2023/09/26 00:13:40;;;;;;;5.60;1.73;;;;;;;20.86;92.23;99678.34;5085326;28;20747;-68
2023/09/26 00:16:07;;;;;;;2.20;2.00;;;;;;;20.87;92.24;99671.34;5073953;28;20676;-68
2023/09/26 00:18:35;;;;;;;4.90;1.73;;;;;;;20.78;91.99;99677.16;5081132;28;20253;-68
2023/09/26 00:21:02;;;;;;;2.00;1.90;;;;;;;20.78;92.06;99677.16;5094058;28;20258;-68
2023/09/26 00:23:29;;;;;;;1.83;1.73;;;;;;;20.79;91.66;99676.25;5093661;28;20234;-68
2023/09/26 00:25:56;;;;;;;3.87;1.97;;;;;;;20.64;91.62;99670.31;5089910;28;20275;-68
2023/09/26 00:28:23;;;;;;;2.40;2.30;;;;;;;20.56;92.62;99688.19;5088518;28;20203;-68
2023/09/26 00:30:49;;;;;;;1.93;1.83;;;;;;;20.46;93.31;99687.13;5086508;28;20197;-68
2023/09/26 00:33:16;;;;;;;1.87;1.77;;;;;;;20.44;93.60;99689.03;5093862;28;20203;-68
2023/09/26 00:35:44;;;;;;;4.67;1.60;;;;;;;20.30;93.76;99681.28;5093594;28;20206;-68
2023/09/26 00:38:11;;;;;;;1.50;1.40;;;;;;;20.15;94.48;99682.25;5093814;28;20677;-68
2023/09/26 00:40:40;;;;;;;2.10;1.57;;;;;;;20.03;94.84;99680.44;5093503;28;20330;-68
2023/09/26 00:43:07;;;;;;;2.57;1.67;;;;;;;19.85;95.94;99680.69;5093550;28;20254;-68
2023/09/26 00:45:35;;;;;;;2.53;2.33;;;;;;;19.93;95.57;99681.00;5093461;28;20206;-67
2023/09/26 00:48:05;;;;;;;2.23;2.03;;;;;;;19.68;95.93;99673.09;5093507;28;20206;-68
2023/09/26 00:50:33;;;;;;;1.73;1.70;;;;;;;19.72;96.17;99679.78;5093485;28;20208;-68
2023/09/26 00:53:01;;;;;;;3.13;2.10;;;;;;;19.80;95.56;99687.13;5093375;28;20205;-68
2023/09/26 00:55:28;;;;;;;2.37;2.27;;;;;;;19.83;95.14;99687.75;5084915;28;20207;-69
2023/09/26 00:57:55;;;;;;;3.90;2.37;;;;;;;19.73;94.74;99686.66;5072902;28;20210;-68
2023/09/26 01:00:25;;;;;;;5.47;1.60;;;;;;;19.72;94.08;99685.00;5084588;28;20748;-68
2023/09/26 01:02:51;;;;;;;2.00;1.80;;;;;;;19.57;93.98;99680.75;5078588;28;20286;-68
2023/09/26 01:05:18;;;;;;;1.70;1.60;;;;;;;19.47;94.21;99690.06;5083611;28;20204;-68
2023/09/26 01:07:46;;;;;;;2.10;1.93;;;;;;;19.48;94.50;99673.53;5093387;28;20235;-68
2023/09/26 01:10:14;;;;;;;2.10;2.00;;;;;;;19.47;94.55;99673.63;5093064;28;20266;-68
2023/09/26 01:12:42;;;;;;;1.87;1.77;;;;;;;19.47;94.15;99679.66;5093419;28;20221;-68
2023/09/26 01:15:09;;;;;;;2.30;1.70;;;;;;;19.35;94.96;99678.59;5084037;28;20197;-69
2023/09/26 01:17:36;;;;;;;1.70;1.60;;;;;;;19.36;95.03;99679.44;5072736;28;20202;-69
2023/09/26 01:20:08;;;;;;;1.80;1.70;;;;;;;19.31;94.82;99671.94;5072520;28;20229;-68
2023/09/26 01:22:35;;;;;;;1.93;1.83;;;;;;;19.40;94.83;99683.56;5072587;28;20260;-68
2023/09/26 01:25:04;;;;;;;2.47;2.27;;;;;;;19.33;94.61;99682.22;5072180;28;20225;-67
2023/09/26 01:27:31;;;;;;;1.63;1.53;;;;;;;19.30;95.24;99687.63;5072474;28;20208;-69
2023/09/26 01:29:57;;;;;;;2.00;1.80;;;;;;;19.33;95.04;99684.81;5072298;28;20201;-68
2023/09/26 01:32:26;;;;;;;1.40;1.40;;;;;;;19.35;95.00;99685.59;5072373;28;20352;-68
2023/09/26 01:34:53;;;;;;;1.83;1.73;;;;;;;19.36;95.20;99682.03;5072370;28;20237;-68
2023/09/26 01:37:20;;;;;;;2.13;2.03;;;;;;;19.44;94.83;99679.84;5071352;28;20213;-68
2023/09/26 01:39:47;;;;;;;1.47;1.37;;;;;;;19.49;94.40;99682.97;5072252;28;20271;-68
2023/09/26 01:42:15;;;;;;;4.00;1.67;;;;;;;19.54;94.30;99680.09;5083883;28;20674;-68
2023/09/26 01:44:41;;;;;;;1.90;1.80;;;;;;;19.57;93.99;99679.91;5072359;28;20573;-67
2023/09/26 01:47:15;;;;;;;2.03;1.93;;;;;;;19.62;93.68;99678.69;5072016;28;20678;-67
2023/09/26 01:49:43;;;;;;;1.60;1.50;;;;;;;19.69;93.86;99674.78;5072131;28;20260;-67
2023/09/26 01:52:10;;;;;;;2.30;2.10;;;;;;;19.73;93.61;99681.47;5091038;28;20209;-67
2023/09/26 01:54:36;;;;;;;2.97;2.10;;;;;;;19.79;93.69;99681.06;5092430;28;20202;-67
2023/09/26 01:57:03;;;;;;;1.90;1.80;;;;;;;19.81;93.21;99684.41;5092290;28;20287;-68
2023/09/26 01:59:34;;;;;;;2.13;2.03;;;;;;;19.78;92.81;99668.16;5092316;28;20263;-68
2023/09/26 02:02:03;;;;;;;1.80;1.70;;;;;;;19.87;92.74;99673.59;5092247;28;20209;-68
2023/09/26 02:04:30;;;;;;;2.00;1.90;;;;;;;19.90;92.42;99675.19;5091974;28;20722;-68
2023/09/26 02:06:56;;;;;;;1.37;1.37;;;;;;;19.84;92.18;99681.59;5084004;28;20198;-68
2023/09/26 02:09:24;;;;;;;2.63;1.70;;;;;;;19.77;92.37;99682.09;5090562;28;20286;-69
2023/09/26 02:11:51;;;;;;;2.50;1.97;;;;;;;19.70;92.55;99675.63;5092025;28;20252;-68
2023/09/26 02:14:17;;;;;;;6.20;1.60;;;;;;;19.55;93.23;99669.59;5091875;28;20267;-68
2023/09/26 02:16:45;;;;;;;2.43;2.33;;;;;;;19.51;93.54;99688.94;5092069;28;20591;-67
2023/09/26 02:19:12;;;;;;;1.57;1.47;;;;;;;19.48;94.34;99693.50;5091768;28;20205;-67
2023/09/26 02:21:39;;;;;;;2.63;2.43;;;;;;;19.44;94.49;99695.44;5091922;28;20636;-68
2023/09/26 02:24:06;;;;;;;2.90;2.10;;;;;;;19.49;94.47;99690.78;5091861;28;20602;-67
2023/09/26 02:26:33;;;;;;;1.90;1.80;;;;;;;19.51;94.20;99691.53;5091832;28;20205;-67
2023/09/26 02:29:00;;;;;;;2.33;2.07;;;;;;;19.49;94.35;99682.97;5091891;28;20665;-67
2023/09/26 02:31:27;;;;;;;3.10;2.20;;;;;;;19.55;94.14;99695.59;5091742;28;20296;-67
2023/09/26 02:33:56;;;;;;;2.73;2.27;;;;;;;19.55;94.50;99681.78;5091930;28;20632;-67
2023/09/26 02:36:23;;;;;;;1.83;1.73;;;;;;;19.57;94.68;99690.31;5091750;28;20202;-67
2023/09/26 02:38:49;;;;;;;2.33;2.23;;;;;;;19.57;94.27;99696.34;5091843;28;20241;-68
2023/09/26 02:41:16;;;;;;;2.00;1.80;;;;;;;19.57;94.87;99695.53;5091740;28;20257;-67
2023/09/26 02:43:43;;;;;;;2.53;2.33;;;;;;;19.57;94.67;99693.75;5091521;28;20224;-67
2023/09/26 02:46:10;;;;;;;2.10;2.00;;;;;;;19.50;95.29;99695.06;5091780;28;20214;-68
2023/09/26 02:48:36;;;;;;;1.90;1.80;;;;;;;19.48;95.67;99701.31;5094856;28;20699;-67
2023/09/26 02:51:05;;;;;;;2.23;2.13;;;;;;;19.46;96.02;99709.19;5095763;28;20207;-68
2023/09/26 02:53:32;;;;;;;1.70;1.60;;;;;;;19.41;96.46;99706.03;5095693;28;20209;-68
2023/09/26 02:55:59;;;;;;;2.20;2.10;;;;;;;19.36;96.79;99708.88;5095761;28;20682;-68
2023/09/26 02:58:25;;;;;;;2.10;2.00;;;;;;;19.32;97.25;99709.97;5095624;28;20214;-67
2023/09/26 03:00:53;;;;;;;1.73;1.63;;;;;;;19.29;97.27;99696.34;5095397;28;20586;-67
2023/09/26 03:03:20;;;;;;;1.90;1.80;;;;;;;19.27;97.29;99698.19;5095547;28;20264;-67
2023/09/26 03:05:49;;;;;;;2.23;2.13;;;;;;;19.24;97.89;99693.19;5095229;28;20224;-68
2023/09/26 03:08:17;;;;;;;1.83;1.83;;;;;;;19.26;97.69;99696.53;5095446;28;20749;-67
2023/09/26 03:10:44;;;;;;;6.73;2.27;;;;;;;19.27;97.39;99693.00;5095324;28;20636;-68
2023/09/26 03:13:11;;;;;;;2.13;1.80;;;;;;;19.28;97.21;99699.88;5095340;28;20212;-67
2023/09/26 03:15:38;;;;;;;1.83;1.73;;;;;;;19.25;96.73;99694.88;5095336;28;20204;-67
2023/09/26 03:18:06;;;;;;;4.90;2.53;;;;;;;19.25;96.42;99694.88;5090475;28;20256;-67
2023/09/26 03:20:33;;;;;;;1.80;1.70;;;;;;;19.26;95.43;99696.53;5074950;28;20257;-67
2023/09/26 03:22:59;;;;;;;2.10;2.00;;;;;;;19.26;95.47;99706.91;5074773;28;20273;-67
2023/09/26 03:25:27;;;;;;;2.43;2.33;;;;;;;19.15;96.53;99714.56;5074870;28;20230;-68
2023/09/26 03:28:01;;;;;;;2.47;2.27;;;;;;;19.03;96.97;99720.50;5074721;28;20676;-68
2023/09/26 03:30:28;;;;;;;2.43;2.23;;;;;;;19.05;97.53;99703.03;5074791;28;20201;-68
2023/09/26 03:32:54;;;;;;;1.97;1.87;;;;;;;19.00;96.79;99699.88;5074521;28;20211;-68
2023/09/26 03:35:21;;;;;;;2.20;2.10;;;;;;;19.08;97.20;99702.84;5074836;28;20205;-68
2023/09/26 03:37:48;;;;;;;1.60;1.50;;;;;;;19.10;97.44;99698.38;5074669;28;20254;-68
2023/09/26 03:40:15;;;;;;;4.30;1.93;;;;;;;19.05;97.70;99687.44;5074527;28;20237;-68
2023/09/26 03:42:43;;;;;;;2.23;2.00;;;;;;;19.15;97.74;99698.97;5074551;28;20201;-67
2023/09/26 03:45:10;;;;;;;4.90;2.30;;;;;;;19.16;96.91;99701.44;5074300;28;20237;-68
2023/09/26 03:47:37;;;;;;;1.97;1.87;;;;;;;19.16;97.14;99691.03;5074484;28;20206;-67
2023/09/26 03:50:06;;;;;;;5.80;2.20;;;;;;;19.19;97.89;99705.66;5074275;28;20210;-67
2023/09/26 03:52:32;;;;;;;2.40;2.30;;;;;;;19.21;98.59;99703.78;5074728;28;20671;-69
2023/09/26 03:54:59;;;;;;;2.77;2.67;;;;;;;19.21;98.50;99698.59;5092667;28;20198;-68
2023/09/26 03:57:26;;;;;;;3.17;2.43;;;;;;;19.23;98.59;99694.94;5094663;28;20657;-67
2023/09/26 03:59:54;;;;;;;2.93;2.73;;;;;;;19.27;98.30;99703.41;5080488;28;20205;-67
2023/09/26 04:02:21;;;;;;;2.90;2.80;;;;;;;19.25;98.51;99700.91;5090797;28;22234;-68
2023/09/26 04:04:48;;;;;;;2.63;2.33;;;;;;;19.25;98.37;99705.28;5094354;28;20285;-67
2023/09/26 04:07:15;;;;;;;5.90;2.10;;;;;;;19.22;98.36;99710.66;5094029;28;20206;-67
2023/09/26 04:09:42;;;;;;;9.57;1.80;;;;;;;19.21;98.81;99708.97;5094370;28;20216;-67
2023/09/26 04:12:09;;;;;;;3.17;2.90;;;;;;;19.21;99.13;99717.63;5094154;28;20210;-67
2023/09/26 04:14:35;;;;;;;4.43;1.93;;;;;;;19.20;99.13;99715.94;5094392;28;20692;-68
2023/09/26 04:17:04;;;;;;;2.63;2.43;;;;;;;19.20;99.44;99717.69;5094174;28;20207;-67
2023/09/26 04:19:30;;;;;;;2.47;2.37;;;;;;;19.22;99.64;99721.06;5094038;28;20215;-68
2023/09/26 04:21:57;;;;;;;2.30;1.90;;;;;;;19.23;99.58;99722.69;5094143;28;20206;-69
2023/09/26 04:24:24;;;;;;;2.93;2.73;;;;;;;19.22;100.00;99726.25;5093877;28;20634;-68
2023/09/26 04:26:51;;;;;;;2.07;1.97;;;;;;;19.21;100.00;99724.56;5094064;28;20208;-68
2023/09/26 04:29:17;;;;;;;12.60;3.07;;;;;;;19.21;100.00;99724.56;5093793;28;20208;-67
2023/09/26 04:31:44;;;;;;;2.30;2.20;;;;;;;19.22;100.00;99727.09;5092585;28;20205;-67
2023/09/26 04:34:12;;;;;;;2.67;2.47;;;;;;;19.12;100.00;99717.34;5073620;28;20232;-68
2023/09/26 04:36:39;;;;;;;2.63;2.43;;;;;;;19.12;100.00;99727.72;5073435;28;20208;-68
2023/09/26 04:39:06;;;;;;;2.50;2.40;;;;;;;19.06;100.00;99728.09;5085637;28;20202;-67
2023/09/26 04:41:33;;;;;;;4.13;3.00;;;;;;;19.04;100.00;99732.53;5093523;28;20205;-67
2023/09/26 04:44:00;;;;;;;2.77;2.53;;;;;;;19.04;100.00;99719.53;5093527;28;20211;-67
2023/09/26 04:46:26;;;;;;;2.80;2.50;;;;;;;19.03;100.00;99720.50;5093541;28;20594;-67
2023/09/26 04:48:53;;;;;;;2.60;2.40;;;;;;;18.97;100.00;99720.81;5093539;28;20208;-67
2023/09/26 04:51:21;;;;;;;3.90;2.83;;;;;;;18.93;100.00;99724.56;5093454;28;20209;-67
2023/09/26 04:53:48;;;;;;;4.87;2.73;;;;;;;18.93;100.00;99724.56;5093309;28;20204;-68
2023/09/26 04:56:15;;;;;;;2.60;2.40;;;;;;;18.95;100.00;99723.53;5093478;28;20671;-67
2023/09/26 04:58:41;;;;;;;3.43;2.50;;;;;;;18.99;100.00;99726.78;5093253;28;20211;-68
2023/09/26 05:01:13;;;;;;;1.87;1.77;;;;;;;19.01;100.00;99724.91;5093307;28;20228;-67
2023/09/26 05:03:40;;;;;;;13.63;3.00;;;;;;;19.05;100.00;99731.63;5093153;28;20214;-67
2023/09/26 05:06:08;;;;;;;3.00;2.80;;;;;;;19.00;100.00;99731.06;5093233;28;20230;-67
2023/09/26 05:08:37;;;;;;;4.13;2.60;;;;;;;18.98;100.00;99727.69;5092964;28;20238;-67
2023/09/26 05:11:03;;;;;;;2.87;2.67;;;;;;;18.97;100.00;99734.66;5087430;28;20194;-67
2023/09/26 05:13:30;;;;;;;2.17;2.07;;;;;;;19.05;100.00;99737.66;5077086;28;20197;-68
2023/09/26 05:15:57;;;;;;;2.27;2.17;;;;;;;19.20;100.00;99743.69;5080055;28;20200;-67
2023/09/26 05:18:24;;;;;;;2.40;2.00;;;;;;;19.35;100.00;99748.78;5079553;28;20251;-65
2023/09/26 05:20:51;;;;;;;2.13;2.03;;;;;;;19.43;100.00;99744.94;5081164;28;20675;-63
2023/09/26 05:23:18;;;;;;;2.50;2.40;;;;;;;19.51;100.00;99743.56;5080002;28;20200;-65
2023/09/26 05:25:46;;;;;;;1.87;1.77;;;;;;;19.63;100.00;99745.38;5082865;28;20224;-64
2023/09/26 05:28:12;;;;;;;2.37;2.17;;;;;;;19.76;100.00;99741.09;5077057;28;20206;-69
2023/09/26 05:30:39;;;;;;;3.17;2.53;;;;;;;19.90;100.00;99738.44;5069095;28;20209;-69
2023/09/26 05:33:08;;;;;;;1.77;1.67;;;;;;;20.08;100.00;99743.44;5076969;28;20208;-68
2023/09/26 05:35:34;;;;;;;2.33;2.13;;;;;;;20.17;99.77;99753.25;5082100;28;20196;-66
2023/09/26 05:38:01;;;;;;;2.60;2.50;;;;;;;20.27;100.00;99755.22;5086592;28;20198;-65
2023/09/26 05:40:28;;;;;;;5.87;2.37;;;;;;;20.33;99.09;99753.97;5092637;28;20648;-65
2023/09/26 05:42:56;;;;;;;5.53;3.17;;;;;;;20.30;99.05;99751.56;5092565;28;20311;-65
2023/09/26 05:45:23;;;;;;;2.33;2.23;;;;;;;20.27;99.68;99759.59;5092280;28;20244;-64
2023/09/26 05:47:50;;;;;;;2.87;2.70;;;;;;;20.25;99.85;99757.06;5086305;28;20257;-65
2023/09/26 05:50:16;;;;;;;8.80;2.23;;;;;;;20.29;100.00;99755.94;5092286;28;20203;-65
2023/09/26 05:52:43;;;;;;;2.97;2.77;;;;;;;20.41;100.00;99760.38;5092368;28;20255;-65
2023/09/26 05:55:10;;;;;;;2.37;2.27;;;;;;;20.61;100.00;99747.81;5090356;28;20204;-65
2023/09/26 05:57:37;;;;;;;3.93;2.77;;;;;;;20.75;97.13;99756.38;5082455;28;20198;-66
2023/09/26 06:00:12;;;;;;;3.37;2.67;;;;;;;20.93;96.81;99755.19;5080282;28;20206;-64
2023/09/26 06:02:39;;;;;;;80.90;27.50;;;;;;;21.15;97.08;99758.97;5074706;28;20294;-65
2023/09/26 06:05:06;;;;;;;12.67;5.53;;;;;;;21.34;95.19;99760.22;5071685;28;20305;-65
2023/09/26 06:07:33;;;;;;;5.03;3.97;;;;;;;21.49;94.36;99763.53;5087335;28;20770;-66
2023/09/26 06:10:00;;;;;;;2.50;2.40;;;;;;;21.65;92.11;99763.34;5091818;28;20195;-64
2023/09/26 06:12:27;;;;;;;2.30;2.20;;;;;;;21.79;92.99;99771.00;5086826;28;20207;-64
2023/09/26 06:14:55;;;;;;;3.33;2.77;;;;;;;21.92;91.27;99767.47;5091309;28;20198;-65
2023/09/26 06:17:23;;;;;;;4.10;3.17;;;;;;;21.94;90.83;99757.72;5091956;28;20256;-66
2023/09/26 06:19:50;;;;;;;4.23;3.07;;;;;;;22.07;90.67;99764.72;5091864;28;20203;-67
2023/09/26 06:22:17;;;;;;;3.47;2.50;;;;;;;22.20;89.76;99773.31;5091474;28;20203;-66
2023/09/26 06:24:44;;;;;;;2.60;2.27;;;;;;;22.32;88.26;99777.66;5091492;28;20234;-67
2023/09/26 06:27:11;;;;;;;11.73;7.47;;;;;;;22.32;87.79;99769.84;5091955;28;20207;-66
2023/09/26 06:29:38;;;;;;;4.47;4.07;;;;;;;22.30;89.22;99762.09;5091683;28;20203;-67
2023/09/26 06:32:05;;;;;;;4.33;3.00;;;;;;;22.41;88.99;99763.94;5091886;28;20204;-66
2023/09/26 06:34:35;;;;;;;2.03;1.93;;;;;;;22.54;88.97;99762.09;5091720;28;20207;-67
2023/09/26 06:37:02;;;;;;;2.30;2.10;;;;;;;22.67;87.63;99770.72;5091796;28;20211;-67
2023/09/26 06:39:31;;;;;;;2.00;1.90;;;;;;;22.87;86.13;99772.69;5091809;28;20203;-66
2023/09/26 06:41:58;;;;;;;2.47;2.37;;;;;;;23.00;84.74;99777.84;5092365;28;20199;-68
2023/09/26 06:44:25;;;;;;;2.63;2.43;;;;;;;23.09;82.65;99777.16;5091189;28;20206;-68
2023/09/26 06:46:52;;;;;;;2.50;2.37;;;;;;;23.25;83.30;99776.81;5090825;28;20215;-68
2023/09/26 06:49:19;;;;;;;3.17;2.67;;;;;;;23.35;82.30;99780.38;5091570;28;20626;-68
2023/09/26 06:51:47;;;;;;;1.73;1.63;;;;;;;23.48;82.40;99783.75;5091340;28;20224;-68
2023/09/26 06:54:14;;;;;;;2.53;2.20;;;;;;;23.65;82.69;99785.06;5090579;28;20215;-68
2023/09/26 06:56:41;;;;;;;2.07;1.87;;;;;;;23.83;81.95;99787.09;5091223;28;20290;-68
2023/09/26 06:59:08;;;;;;;1.97;1.87;;;;;;;24.05;82.16;99786.22;5090249;28;20690;-68
2023/09/26 07:01:35;;;;;;;2.10;2.00;;;;;;;24.28;79.82;99785.25;5090923;28;20278;-68
2023/09/26 07:04:01;;;;;;;3.27;1.77;;;;;;;24.50;78.24;99784.31;5090776;28;20203;-68
2023/09/26 07:06:30;;;;;;;3.17;1.63;;;;;;;24.61;77.53;99781.69;5090321;28;20238;-68
2023/09/26 07:08:59;;;;;;;1.73;1.63;;;;;;;24.71;76.51;99784.38;5085078;28;20623;-68
2023/09/26 07:11:25;;;;;;;2.03;1.93;;;;;;;24.91;77.22;99792.28;5074388;28;20638;-68
2023/09/26 07:13:52;;;;;;;2.87;1.80;;;;;;;25.06;76.83;99782.31;5076406;28;20844;-69
2023/09/26 07:16:19;;;;;;;2.47;1.70;;;;;;;25.29;74.48;99790.88;5075310;28;20204;-69
2023/09/26 07:18:46;;;;;;;4.93;1.63;;;;;;;25.53;74.34;99783.53;5083176;28;20196;-68
2023/09/26 07:21:12;;;;;;;3.87;1.60;;;;;;;25.63;73.15;99786.22;5081050;28;20215;-69
2023/09/26 07:23:39;;;;;;;1.57;1.57;;;;;;;25.77;73.50;99784.06;5081801;28;20270;-68
2023/09/26 07:26:12;;;;;;;1.63;1.60;;;;;;;25.94;72.52;99780.81;5073623;28;20222;-69
2023/09/26 07:28:40;;;;;;;5.13;1.63;;;;;;;25.98;69.84;99783.97;5077546;28;20249;-68
2023/09/26 07:31:08;;;;;;;1.70;1.60;;;;;;;26.16;68.42;99784.16;5079930;28;20199;-68
2023/09/26 07:33:36;;;;;;;1.30;1.30;;;;;;;26.26;66.15;99785.03;5079969;28;20648;-69
2023/09/26 07:36:03;;;;;;;2.17;1.30;;;;;;;26.36;65.81;99778.84;5081228;28;20564;-69
2023/09/26 07:38:30;;;;;;;2.77;1.37;;;;;;;26.55;65.28;99785.91;5082064;28;20199;-69
2023/09/26 07:40:57;;;;;;;1.30;1.30;;;;;;;26.65;65.88;99781.47;5083433;28;20231;-68
2023/09/26 07:43:29;;;;;;;1.67;1.57;;;;;;;26.75;65.67;99779.69;5082517;28;20200;-68
2023/09/26 07:45:57;;;;;;;1.20;1.20;;;;;;;26.86;65.04;99787.44;5074852;28;20211;-68
2023/09/26 07:48:24;;;;;;;1.97;1.27;;;;;;;26.94;64.01;99782.31;5079299;28;20249;-68
2023/09/26 07:50:50;;;;;;;1.17;1.17;;;;;;;26.93;63.91;99780.66;5076103;28;20200;-69
2023/09/26 07:53:17;;;;;;;1.13;1.13;;;;;;;26.85;64.06;99782.31;5087533;28;20204;-68
2023/09/26 07:55:44;;;;;;;1.43;1.40;;;;;;;26.88;64.25;99782.84;5076703;28;20207;-69
2023/09/26 07:58:11;;;;;;;1.07;1.07;;;;;;;26.59;64.52;99782.03;5086419;28;20200;-70
2023/09/26 08:00:39;;;;;;;1.40;1.30;;;;;;;26.56;64.43;99782.28;5068645;28;20652;-69
2023/09/26 08:03:06;;;;;;;1.33;1.23;;;;;;;26.46;64.70;99776.22;5071337;28;20200;-69
2023/09/26 08:05:32;;;;;;;1.80;1.63;;;;;;;26.76;64.27;99783.94;5083726;28;20215;-69
2023/09/26 08:08:03;;;;;;;1.17;1.17;;;;;;;26.96;64.07;99763.75;5090215;28;20698;-70
2023/09/26 08:10:30;;;;;;;1.10;1.10;;;;;;;27.22;62.91;99771.84;5091701;28;20200;-69
2023/09/26 08:12:56;;;;;;;1.10;1.10;;;;;;;27.30;62.35;99778.09;5093250;28;20234;-69
2023/09/26 08:15:24;;;;;;;7.30;1.47;;;;;;;27.42;64.38;99776.94;5088249;28;20207;-69
2023/09/26 08:17:52;;;;;;;1.50;1.40;;;;;;;27.64;64.29;99781.03;5093568;28;20249;-70
2023/09/26 08:20:18;;;;;;;0.93;0.90;;;;;;;27.63;62.37;99779.34;5093074;28;20214;-71
2023/09/26 08:22:45;;;;;;;1.00;1.00;;;;;;;27.57;62.62;99778.13;5092681;28;20230;-69
2023/09/26 08:25:12;;;;;;;1.37;1.23;;;;;;;27.65;62.19;99772.16;5093841;28;20260;-70
2023/09/26 08:27:39;;;;;;;0.80;0.80;;;;;;;27.78;62.38;99772.66;5093387;28;20195;-69
2023/09/26 08:30:07;;;;;;;0.80;0.80;;;;;;;27.84;61.33;99766.78;5092788;28;20226;-68
2023/09/26 08:32:34;;;;;;;1.30;1.30;;;;;;;27.41;61.01;99770.00;5091214;28;20199;-70
2023/09/26 08:35:02;;;;;;;3.07;0.70;;;;;;;27.62;60.85;99767.19;5093308;28;20198;-69
2023/09/26 08:37:30;;;;;;;2.43;1.17;;;;;;;27.63;60.78;99776.72;5092367;28;20200;-69
2023/09/26 08:39:57;;;;;;;2.83;0.80;;;;;;;27.63;61.14;99768.81;5090068;28;20195;-69
2023/09/26 08:42:28;;;;;;;0.70;0.70;;;;;;;27.71;62.65;99765.47;5093439;28;20640;-69
2023/09/26 08:44:55;;;;;;;2.93;0.83;;;;;;;27.82;60.64;99762.66;5092359;28;20566;-69
2023/09/26 08:47:24;;;;;;;1.80;1.00;;;;;;;27.51;60.63;99759.44;5091377;28;20222;-68
2023/09/26 08:49:54;;;;;;;1.30;1.20;;;;;;;27.59;61.32;99767.47;5092360;28;20286;-70
2023/09/26 08:52:22;;;;;;;0.80;0.80;;;;;;;27.60;61.92;99766.47;5088644;28;20234;-69
2023/09/26 08:54:49;;;;;;;1.20;1.20;;;;;;;27.68;60.91;99760.50;5091800;28;20212;-67
2023/09/26 08:57:17;;;;;;;0.80;0.70;;;;;;;27.66;61.39;99763.25;5091560;28;20199;-68
2023/09/26 08:59:47;;;;;;;2.67;0.97;;;;;;;27.78;59.93;99756.84;5091269;28;20635;-69
2023/09/26 09:02:15;;;;;;;0.90;0.90;;;;;;;27.98;62.33;99761.00;5091076;28;20196;-68
2023/09/26 09:04:42;;;;;;;0.93;0.93;;;;;;;28.19;59.95;99755.50;5091745;28;20282;-69
2023/09/26 09:07:10;;;;;;;1.30;1.30;;;;;;;28.44;60.15;99753.91;5090853;28;20247;-71
2023/09/26 09:09:38;;;;;;;0.97;0.93;;;;;;;28.30;57.93;99751.81;5092370;28;20206;-68
2023/09/26 09:12:21;;;;;;;2.77;0.93;;;;;;;28.37;60.22;99752.88;5092307;28;20211;-69
2023/09/26 09:14:48;;;;;;;1.03;1.03;;;;;;;28.29;59.18;99742.25;5091115;28;20227;-69
2023/09/26 09:17:15;;;;;;;2.27;1.27;;;;;;;28.22;57.79;99738.53;5091228;28;20210;-69
2023/09/26 09:19:46;;;;;;;0.90;0.83;;;;;;;28.29;60.56;99748.34;5091824;28;20701;-69
2023/09/26 09:22:17;;;;;;;1.10;1.10;;;;;;;28.19;58.66;99749.38;5092018;28;20282;-69
2023/09/26 09:24:53;;;;;;;1.20;1.20;;;;;;;28.30;59.75;99746.53;5091077;28;20298;-68
2023/09/26 09:27:30;;;;;;;0.90;0.90;;;;;;;28.31;58.41;99740.25;5090506;28;20298;-68
2023/09/26 09:30:05;;;;;;;0.80;0.80;;;;;;;28.42;58.30;99740.06;5091600;28;20225;-68
2023/09/26 09:32:32;;;;;;;1.00;1.00;;;;;;;28.58;58.20;99733.09;5091554;28;20194;-68
2023/09/26 09:34:59;;;;;;;0.73;0.70;;;;;;;28.70;58.65;99744.28;5089179;28;20196;-71
2023/09/26 09:37:26;;;;;;;1.27;1.17;;;;;;;28.68;56.07;99738.31;5087444;28;20253;-69
2023/09/26 09:39:55;;;;;;;1.10;1.00;;;;;;;28.53;55.92;99731.91;5087887;28;20552;-68
2023/09/26 09:42:22;;;;;;;1.33;1.33;;;;;;;28.65;57.61;99714.84;5090546;28;20203;-68
2023/09/26 09:44:49;;;;;;;0.80;0.80;;;;;;;28.81;55.35;99736.13;5089266;28;20227;-68
2023/09/26 09:47:22;;;;;;;0.83;0.83;;;;;;;28.94;56.59;99733.91;5090824;28;20231;-68
2023/09/26 09:49:50;;;;;;;0.97;0.97;;;;;;;28.72;54.84;99734.41;5088654;28;20252;-69
2023/09/26 09:52:19;;;;;;;0.77;0.77;;;;;;;28.52;54.15;99733.72;5090308;28;20199;-68
2023/09/26 09:54:47;;;;;;;1.00;1.00;;;;;;;28.39;56.47;99730.63;5089799;28;20590;-68
2023/09/26 09:57:17;;;;;;;2.30;1.40;;;;;;;28.21;55.43;99710.53;5087547;28;20191;-69
2023/09/26 09:59:45;;;;;;;1.40;0.90;;;;;;;27.98;57.38;99712.75;5087644;28;20203;-68
2023/09/26 10:02:15;;;;;;;1.90;0.90;;;;;;;28.22;56.18;99712.16;5087876;28;20274;-67
2023/09/26 10:04:43;;;;;;;0.80;0.80;;;;;;;28.32;55.01;99715.56;5084444;28;20203;-67
2023/09/26 10:07:12;;;;;;;1.57;0.90;;;;;;;28.08;57.28;99716.97;5085337;28;20663;-67
2023/09/26 10:09:40;;;;;;;3.80;1.10;;;;;;;28.10;56.97;99714.22;5087840;28;20203;-67
2023/09/26 10:12:09;;;;;;;2.17;1.57;;;;;;;28.14;55.71;99711.13;5086267;28;20245;-70
2023/09/26 10:14:37;;;;;;;1.47;1.37;;;;;;;28.04;54.67;99706.88;5088318;28;20203;-67
2023/09/26 10:17:06;;;;;;;1.57;1.10;;;;;;;28.14;56.35;99715.59;5085477;28;20203;-69
2023/09/26 10:19:34;;;;;;;0.70;0.70;;;;;;;28.28;55.92;99706.28;5088302;28;20199;-67
2023/09/26 10:22:17;;;;;;;0.90;0.90;;;;;;;28.29;55.86;99697.41;5086659;28;20203;-71
2023/09/26 10:24:48;;;;;;;1.03;1.00;;;;;;;28.21;53.57;99694.72;5087699;28;20195;-69
2023/09/26 10:27:23;;;;;;;0.80;0.80;;;;;;;28.23;54.97;99709.41;5085682;28;20215;-67
2023/09/26 10:29:53;;;;;;;1.83;1.50;;;;;;;28.17;56.16;99709.16;5086731;28;20199;-68
2023/09/26 10:32:30;;;;;;;0.80;0.80;;;;;;;27.91;55.55;99703.78;5089943;28;20246;-67
2023/09/26 10:34:58;;;;;;;1.70;0.97;;;;;;;27.82;57.26;99700.22;5090605;28;20221;-70
2023/09/26 10:37:27;;;;;;;0.90;0.90;;;;;;;27.88;58.77;99696.16;5089703;28;20195;-67
2023/09/26 10:39:53;;;;;;;3.13;1.30;;;;;;;28.10;58.13;99688.69;5089576;28;20203;-67
2023/09/26 10:42:22;;;;;;;1.07;1.07;;;;;;;28.12;57.44;99697.25;5089711;28;20240;-68
2023/09/26 10:44:50;;;;;;;6.30;1.10;;;;;;;28.11;57.24;99690.31;5090673;28;20230;-71
2023/09/26 10:47:21;;;;;;;1.83;1.10;;;;;;;28.20;56.44;99687.78;5087194;28;20652;-71
2023/09/26 10:49:48;;;;;;;0.90;0.90;;;;;;;28.17;55.84;99679.16;5087969;28;20260;-71
2023/09/26 10:52:15;;;;;;;2.63;0.90;;;;;;;28.11;56.44;99687.69;5086757;28;20200;-67
2023/09/26 10:54:42;;;;;;;3.03;1.20;;;;;;;28.24;56.12;99695.22;5090394;28;20197;-69
2023/09/26 10:57:16;;;;;;;1.87;1.10;;;;;;;28.37;56.79;99692.22;5086183;28;20282;-70
2023/09/26 10:59:42;;;;;;;1.30;1.30;;;;;;;28.45;56.23;99687.00;5087826;28;20227;-67
2023/09/26 11:02:11;;;;;;;1.13;1.13;;;;;;;28.54;55.36;99686.91;5087941;28;20678;-68
2023/09/26 11:04:39;;;;;;;3.17;1.10;;;;;;;28.63;55.01;99685.97;5086735;28;20294;-67
2023/09/26 11:07:06;;;;;;;1.47;0.90;;;;;;;28.56;54.60;99678.84;5088048;28;20701;-67
2023/09/26 11:09:38;;;;;;;1.10;1.00;;;;;;;28.49;55.56;99678.63;5092856;28;20291;-67
2023/09/26 11:12:05;;;;;;;0.60;0.60;;;;;;;28.60;56.26;99677.53;5092384;28;20234;-68
2023/09/26 11:14:33;;;;;;;1.10;0.73;;;;;;;28.68;55.34;99675.00;5091495;28;20200;-71
2023/09/26 11:16:59;;;;;;;0.80;0.80;;;;;;;28.47;54.88;99677.94;5092393;28;20291;-66
2023/09/26 11:19:27;;;;;;;0.90;0.90;;;;;;;28.36;56.31;99674.72;5094143;28;20674;-67
2023/09/26 11:21:56;;;;;;;2.80;0.83;;;;;;;28.30;56.04;99677.97;5092128;28;20207;-68
2023/09/26 11:24:25;;;;;;;1.77;1.00;;;;;;;28.32;55.62;99681.28;5091041;28;20199;-66
2023/09/26 11:26:53;;;;;;;2.80;1.20;;;;;;;28.37;55.51;99676.41;5089488;28;20223;-66
2023/09/26 11:29:20;;;;;;;2.33;0.90;;;;;;;28.37;55.90;99665.84;5092644;28;20235;-66
2023/09/26 11:31:48;;;;;;;0.93;0.93;;;;;;;28.58;56.17;99666.31;5093194;28;20231;-67
2023/09/26 11:34:18;;;;;;;3.50;1.10;;;;;;;28.68;55.16;99656.53;5090962;28;20235;-67